sensor_id;sensor_type;location;lat;lon;timestamp;P1;durP1;ratioP1;P2;durP2;ratioP2
4692;SDS011;11710;48.024;16.296;2023-08-24T05:29:57;12.53;;;11.33;;
4692;SDS011;11710;48.024;16.296;2023-08-24T05:32:25;13.93;;;11.73;;
4692;SDS011;11710;48.024;16.296;2023-08-24T05:34:52;13.30;;;11.90;;
4692;SDS011;11710;48.024;16.296;2023-08-24T05:37:20;14.83;;;12.40;;
4692;SDS011;11710;48.024;16.296;2023-08-24T05:39:47;15.03;;;13.50;;
4692;SDS011;11710;48.024;16.296;2023-08-24T05:42:14;13.73;;;12.07;;
4692;SDS011;11710;48.024;16.296;2023-08-24T05:44:42;14.40;;;12.27;;
4692;SDS011;11710;48.024;16.296;2023-08-24T05:47:11;14.47;;;12.40;;
4692;SDS011;11710;48.024;16.296;2023-08-24T05:49:38;17.27;;;13.93;;
4692;SDS011;11710;48.024;16.296;2023-08-24T05:52:05;14.00;;;12.50;;
4692;SDS011;11710;48.024;16.296;2023-08-24T05:54:33;13.90;;;12.27;;
4692;SDS011;11710;48.024;16.296;2023-08-24T05:57:00;14.87;;;11.00;;
4692;SDS011;11710;48.024;16.296;2023-08-24T05:59:29;12.30;;;10.50;;
4692;SDS011;11710;48.024;16.296;2023-08-24T06:01:56;11.23;;;10.13;;
4692;SDS011;11710;48.024;16.296;2023-08-24T06:04:25;13.00;;;10.10;;
4692;SDS011;11710;48.024;16.296;2023-08-24T06:06:54;12.73;;;10.37;;
4692;SDS011;11710;48.024;16.296;2023-08-24T06:09:21;11.57;;;10.10;;
4692;SDS011;11710;48.024;16.296;2023-08-24T06:11:49;12.20;;;9.97;;
4692;SDS011;11710;48.024;16.296;2023-08-24T06:14:16;13.00;;;11.10;;
4692;SDS011;11710;48.024;16.296;2023-08-24T06:16:44;12.50;;;10.83;;
4692;SDS011;11710;48.024;16.296;2023-08-24T06:19:11;11.93;;;10.73;;
4692;SDS011;11710;48.024;16.296;2023-08-24T06:21:40;11.53;;;10.40;;
4692;SDS011;11710;48.024;16.296;2023-08-24T06:24:08;11.87;;;10.77;;
4692;SDS011;11710;48.024;16.296;2023-08-24T06:26:35;11.60;;;10.57;;
4692;SDS011;11710;48.024;16.296;2023-08-24T06:29:03;11.17;;;9.97;;
4692;SDS011;11710;48.024;16.296;2023-08-24T06:31:30;10.60;;;9.60;;
4692;SDS011;11710;48.024;16.296;2023-08-24T06:33:58;10.30;;;9.40;;
4692;SDS011;11710;48.024;16.296;2023-08-24T06:36:25;11.13;;;10.03;;
4692;SDS011;11710;48.024;16.296;2023-08-24T06:38:55;10.93;;;9.83;;
4692;SDS011;11710;48.024;16.296;2023-08-24T06:41:24;10.70;;;9.73;;
4692;SDS011;11710;48.024;16.296;2023-08-24T06:43:51;12.00;;;10.80;;
4692;SDS011;11710;48.024;16.296;2023-08-24T06:46:21;12.47;;;11.27;;
4692;SDS011;11710;48.024;16.296;2023-08-24T06:48:48;12.20;;;10.80;;
4692;SDS011;11710;48.024;16.296;2023-08-24T06:51:15;11.73;;;10.60;;
4692;SDS011;11710;48.024;16.296;2023-08-24T06:53:43;12.60;;;10.87;;
4692;SDS011;11710;48.024;16.296;2023-08-24T06:56:13;12.03;;;10.70;;
4692;SDS011;11710;48.024;16.296;2023-08-24T06:58:40;13.50;;;11.40;;
4692;SDS011;11710;48.024;16.296;2023-08-24T07:01:08;12.60;;;11.40;;
4692;SDS011;11710;48.024;16.296;2023-08-24T07:03:36;12.87;;;11.63;;
4692;SDS011;11710;48.024;16.296;2023-08-24T07:06:05;13.00;;;11.77;;
4692;SDS011;11710;48.024;16.296;2023-08-24T07:08:33;13.83;;;12.07;;
4692;SDS011;11710;48.024;16.296;2023-08-24T07:11:00;15.90;;;12.97;;
4692;SDS011;11710;48.024;16.296;2023-08-24T07:13:29;13.93;;;12.03;;
4692;SDS011;11710;48.024;16.296;2023-08-24T07:15:57;13.57;;;11.57;;
4692;SDS011;11710;48.024;16.296;2023-08-24T07:18:24;12.70;;;11.37;;
4692;SDS011;11710;48.024;16.296;2023-08-24T07:20:52;14.07;;;12.57;;
4692;SDS011;11710;48.024;16.296;2023-08-24T07:23:19;13.03;;;11.70;;
4692;SDS011;11710;48.024;16.296;2023-08-24T07:25:46;13.03;;;11.57;;
4692;SDS011;11710;48.024;16.296;2023-08-24T07:28:14;12.40;;;11.10;;
4692;SDS011;11710;48.024;16.296;2023-08-24T07:30:43;13.43;;;11.33;;
4692;SDS011;11710;48.024;16.296;2023-08-24T07:33:11;13.80;;;12.00;;
4692;SDS011;11710;48.024;16.296;2023-08-24T07:35:38;13.87;;;11.97;;
4692;SDS011;11710;48.024;16.296;2023-08-24T07:38:05;12.27;;;10.97;;
4692;SDS011;11710;48.024;16.296;2023-08-24T07:40:33;13.20;;;11.90;;
4692;SDS011;11710;48.024;16.296;2023-08-24T07:43:00;12.73;;;11.43;;
4692;SDS011;11710;48.024;16.296;2023-08-24T07:45:28;13.53;;;11.90;;
4692;SDS011;11710;48.024;16.296;2023-08-24T07:47:56;14.17;;;12.27;;
4692;SDS011;11710;48.024;16.296;2023-08-24T07:50:24;14.70;;;11.90;;
4692;SDS011;11710;48.024;16.296;2023-08-24T07:52:51;12.17;;;11.07;;
4692;SDS011;11710;48.024;16.296;2023-08-24T07:55:19;12.80;;;11.60;;
4692;SDS011;11710;48.024;16.296;2023-08-24T07:57:46;21.63;;;12.13;;
4692;SDS011;11710;48.024;16.296;2023-08-24T08:00:14;13.07;;;11.77;;
4692;SDS011;11710;48.024;16.296;2023-08-24T08:02:42;12.03;;;10.83;;
4692;SDS011;11710;48.024;16.296;2023-08-24T08:05:11;12.60;;;11.20;;
4692;SDS011;11710;48.024;16.296;2023-08-24T08:07:38;13.20;;;11.80;;
4692;SDS011;11710;48.024;16.296;2023-08-24T08:10:06;11.57;;;10.40;;
4692;SDS011;11710;48.024;16.296;2023-08-24T08:12:33;12.27;;;11.00;;
4692;SDS011;11710;48.024;16.296;2023-08-24T08:15:01;14.47;;;11.70;;
4692;SDS011;11710;48.024;16.296;2023-08-24T08:17:29;14.77;;;11.80;;
4692;SDS011;11710;48.024;16.296;2023-08-24T08:19:58;13.63;;;12.33;;
4692;SDS011;11710;48.024;16.296;2023-08-24T08:22:29;13.23;;;11.87;;
4692;SDS011;11710;48.024;16.296;2023-08-24T08:25:00;11.83;;;10.67;;
4692;SDS011;11710;48.024;16.296;2023-08-24T08:27:28;13.17;;;11.90;;
4692;SDS011;11710;48.024;16.296;2023-08-24T08:29:55;19.27;;;12.43;;
4692;SDS011;11710;48.024;16.296;2023-08-24T08:32:23;13.60;;;12.17;;
4692;SDS011;11710;48.024;16.296;2023-08-24T08:34:53;13.13;;;11.43;;
4692;SDS011;11710;48.024;16.296;2023-08-24T08:37:22;12.00;;;10.90;;
4692;SDS011;11710;48.024;16.296;2023-08-24T08:39:51;12.80;;;11.40;;
4692;SDS011;11710;48.024;16.296;2023-08-24T08:42:18;12.90;;;11.60;;
4692;SDS011;11710;48.024;16.296;2023-08-24T08:44:46;15.00;;;11.43;;
4692;SDS011;11710;48.024;16.296;2023-08-24T08:47:14;12.30;;;10.83;;
4692;SDS011;11710;48.024;16.296;2023-08-24T08:49:43;11.90;;;10.73;;
4692;SDS011;11710;48.024;16.296;2023-08-24T08:52:10;13.10;;;11.50;;
4692;SDS011;11710;48.024;16.296;2023-08-24T08:54:38;14.63;;;10.40;;
4692;SDS011;11710;48.024;16.296;2023-08-24T08:57:07;12.67;;;11.37;;
4692;SDS011;11710;48.024;16.296;2023-08-24T08:59:35;13.27;;;11.50;;
4692;SDS011;11710;48.024;16.296;2023-08-24T09:02:03;12.77;;;11.47;;
4692;SDS011;11710;48.024;16.296;2023-08-24T09:04:31;11.70;;;10.47;;
4692;SDS011;11710;48.024;16.296;2023-08-24T09:06:58;12.63;;;11.40;;
4692;SDS011;11710;48.024;16.296;2023-08-24T09:09:29;12.10;;;10.90;;
4692;SDS011;11710;48.024;16.296;2023-08-24T09:11:57;14.27;;;11.70;;
4692;SDS011;11710;48.024;16.296;2023-08-24T09:14:26;13.40;;;11.37;;
4692;SDS011;11710;48.024;16.296;2023-08-24T09:16:53;13.93;;;11.63;;
4692;SDS011;11710;48.024;16.296;2023-08-24T09:19:27;17.30;;;10.63;;
4692;SDS011;11710;48.024;16.296;2023-08-24T09:21:56;11.37;;;10.27;;
4692;SDS011;11710;48.024;16.296;2023-08-24T09:24:29;12.77;;;10.57;;
4692;SDS011;11710;48.024;16.296;2023-08-24T09:26:57;12.13;;;10.90;;
4692;SDS011;11710;48.024;16.296;2023-08-24T09:29:27;12.30;;;11.20;;
4692;SDS011;11710;48.024;16.296;2023-08-24T09:31:54;12.77;;;11.40;;
4692;SDS011;11710;48.024;16.296;2023-08-24T09:34:23;12.93;;;11.53;;
4692;SDS011;11710;48.024;16.296;2023-08-24T09:36:53;12.83;;;11.53;;
4692;SDS011;11710;48.024;16.296;2023-08-24T09:39:20;12.27;;;10.97;;
4692;SDS011;11710;48.024;16.296;2023-08-24T09:41:49;11.80;;;10.60;;
4692;SDS011;11710;48.024;16.296;2023-08-24T09:44:17;12.40;;;11.27;;
4692;SDS011;11710;48.024;16.296;2023-08-24T09:46:46;14.10;;;10.90;;
4692;SDS011;11710;48.024;16.296;2023-08-24T09:49:13;11.80;;;10.77;;
4692;SDS011;11710;48.024;16.296;2023-08-24T09:51:41;11.87;;;10.77;;
4692;SDS011;11710;48.024;16.296;2023-08-24T09:54:10;12.30;;;11.13;;
4692;SDS011;11710;48.024;16.296;2023-08-24T09:56:38;11.80;;;10.57;;
4692;SDS011;11710;48.024;16.296;2023-08-24T09:59:16;13.73;;;12.33;;
4692;SDS011;11710;48.024;16.296;2023-08-24T10:01:48;13.00;;;11.70;;
4692;SDS011;11710;48.024;16.296;2023-08-24T10:04:17;12.67;;;11.47;;
4692;SDS011;11710;48.024;16.296;2023-08-24T10:06:44;12.20;;;11.10;;
4692;SDS011;11710;48.024;16.296;2023-08-24T10:09:14;12.20;;;11.03;;
4692;SDS011;11710;48.024;16.296;2023-08-24T10:11:46;13.30;;;11.93;;
4692;SDS011;11710;48.024;16.296;2023-08-24T10:14:15;12.67;;;11.47;;
4692;SDS011;11710;48.024;16.296;2023-08-24T10:16:44;12.30;;;11.00;;
4692;SDS011;11710;48.024;16.296;2023-08-24T10:19:14;12.73;;;11.50;;
4692;SDS011;11710;48.024;16.296;2023-08-24T10:21:42;12.00;;;10.90;;
4692;SDS011;11710;48.024;16.296;2023-08-24T10:24:10;14.20;;;11.03;;
4692;SDS011;11710;48.024;16.296;2023-08-24T10:26:39;11.57;;;10.37;;
4692;SDS011;11710;48.024;16.296;2023-08-24T10:29:07;13.27;;;11.77;;
4692;SDS011;11710;48.024;16.296;2023-08-24T10:31:35;12.27;;;11.00;;
4692;SDS011;11710;48.024;16.296;2023-08-24T10:34:04;11.37;;;10.37;;
4692;SDS011;11710;48.024;16.296;2023-08-24T10:36:33;11.53;;;10.40;;
4692;SDS011;11710;48.024;16.296;2023-08-24T10:39:02;11.33;;;9.87;;
4692;SDS011;11710;48.024;16.296;2023-08-24T10:41:45;12.80;;;10.93;;
4692;SDS011;11710;48.024;16.296;2023-08-24T10:44:19;13.40;;;11.03;;
4692;SDS011;11710;48.024;16.296;2023-08-24T10:49:29;13.13;;;11.10;;
4692;SDS011;11710;48.024;16.296;2023-08-24T10:51:59;11.77;;;10.57;;
4692;SDS011;11710;48.024;16.296;2023-08-24T10:54:43;12.13;;;10.93;;
4692;SDS011;11710;48.024;16.296;2023-08-24T10:57:23;11.63;;;9.97;;
4692;SDS011;11710;48.024;16.296;2023-08-24T10:59:59;11.70;;;10.50;;
4692;SDS011;11710;48.024;16.296;2023-08-24T11:02:27;11.77;;;10.57;;
4692;SDS011;11710;48.024;16.296;2023-08-24T11:05:05;11.77;;;10.27;;
4692;SDS011;11710;48.024;16.296;2023-08-24T11:07:34;10.43;;;9.40;;
4692;SDS011;11710;48.024;16.296;2023-08-24T11:10:10;11.30;;;10.20;;
4692;SDS011;11710;48.024;16.296;2023-08-24T11:15:29;11.00;;;9.90;;
4692;SDS011;11710;48.024;16.296;2023-08-24T11:18:11;11.23;;;10.00;;
4692;SDS011;11710;48.024;16.296;2023-08-24T11:20:39;10.57;;;9.50;;
4692;SDS011;11710;48.024;16.296;2023-08-24T11:23:09;10.97;;;9.60;;
4692;SDS011;11710;48.024;16.296;2023-08-24T11:25:36;10.97;;;9.80;;
4692;SDS011;11710;48.024;16.296;2023-08-24T11:28:04;11.10;;;10.00;;
4692;SDS011;11710;48.024;16.296;2023-08-24T11:30:32;13.43;;;9.70;;
4692;SDS011;11710;48.024;16.296;2023-08-24T11:33:00;11.57;;;10.50;;
4692;SDS011;11710;48.024;16.296;2023-08-24T11:35:27;11.33;;;10.13;;
4692;SDS011;11710;48.024;16.296;2023-08-24T11:37:55;11.73;;;10.53;;
4692;SDS011;11710;48.024;16.296;2023-08-24T11:40:24;12.60;;;10.13;;
4692;SDS011;11710;48.024;16.296;2023-08-24T11:42:55;11.10;;;10.00;;
4692;SDS011;11710;48.024;16.296;2023-08-24T11:45:23;11.37;;;9.90;;
4692;SDS011;11710;48.024;16.296;2023-08-24T11:47:50;11.10;;;10.10;;
4692;SDS011;11710;48.024;16.296;2023-08-24T11:50:18;11.93;;;10.37;;
4692;SDS011;11710;48.024;16.296;2023-08-24T11:52:46;11.20;;;10.00;;
4692;SDS011;11710;48.024;16.296;2023-08-24T11:55:14;11.63;;;10.53;;
4692;SDS011;11710;48.024;16.296;2023-08-24T11:57:43;11.63;;;10.53;;
4692;SDS011;11710;48.024;16.296;2023-08-24T12:00:11;11.30;;;10.10;;
4692;SDS011;11710;48.024;16.296;2023-08-24T12:02:41;15.00;;;10.23;;
4692;SDS011;11710;48.024;16.296;2023-08-24T12:05:19;11.73;;;10.63;;
4692;SDS011;11710;48.024;16.296;2023-08-24T12:07:47;11.00;;;9.90;;
4692;SDS011;11710;48.024;16.296;2023-08-24T12:10:14;12.90;;;10.00;;
4692;SDS011;11710;48.024;16.296;2023-08-24T12:12:43;11.60;;;9.90;;
4692;SDS011;11710;48.024;16.296;2023-08-24T12:15:17;11.23;;;10.13;;
4692;SDS011;11710;48.024;16.296;2023-08-24T12:17:45;12.90;;;10.30;;
4692;SDS011;11710;48.024;16.296;2023-08-24T12:20:17;10.57;;;9.47;;
4692;SDS011;11710;48.024;16.296;2023-08-24T12:22:49;11.07;;;10.07;;
4692;SDS011;11710;48.024;16.296;2023-08-24T12:25:18;15.67;;;10.37;;
4692;SDS011;11710;48.024;16.296;2023-08-24T12:27:47;12.43;;;9.97;;
4692;SDS011;11710;48.024;16.296;2023-08-24T12:30:14;9.97;;;9.00;;
4692;SDS011;11710;48.024;16.296;2023-08-24T12:32:42;10.90;;;9.90;;
4692;SDS011;11710;48.024;16.296;2023-08-24T12:35:10;9.83;;;8.93;;
4692;SDS011;11710;48.024;16.296;2023-08-24T12:37:38;11.30;;;9.97;;
4692;SDS011;11710;48.024;16.296;2023-08-24T12:40:06;10.90;;;9.87;;
4692;SDS011;11710;48.024;16.296;2023-08-24T12:42:33;10.40;;;9.40;;
4692;SDS011;11710;48.024;16.296;2023-08-24T12:45:04;10.07;;;9.17;;
4692;SDS011;11710;48.024;16.296;2023-08-24T12:47:31;9.93;;;9.03;;
4692;SDS011;11710;48.024;16.296;2023-08-24T12:50:03;10.50;;;9.37;;
4692;SDS011;11710;48.024;16.296;2023-08-24T12:52:31;10.80;;;9.57;;
4692;SDS011;11710;48.024;16.296;2023-08-24T12:54:59;10.93;;;9.97;;
4692;SDS011;11710;48.024;16.296;2023-08-24T12:57:26;11.00;;;9.40;;
4692;SDS011;11710;48.024;16.296;2023-08-24T12:59:54;10.33;;;9.33;;
4692;SDS011;11710;48.024;16.296;2023-08-24T13:02:23;10.93;;;9.40;;
4692;SDS011;11710;48.024;16.296;2023-08-24T13:04:50;9.93;;;9.03;;
4692;SDS011;11710;48.024;16.296;2023-08-24T13:07:17;11.67;;;10.20;;
4692;SDS011;11710;48.024;16.296;2023-08-24T13:09:45;10.00;;;9.00;;
4692;SDS011;11710;48.024;16.296;2023-08-24T13:12:12;12.10;;;9.50;;
4692;SDS011;11710;48.024;16.296;2023-08-24T13:14:39;10.67;;;9.20;;
4692;SDS011;11710;48.024;16.296;2023-08-24T13:17:07;11.30;;;10.13;;
4692;SDS011;11710;48.024;16.296;2023-08-24T13:19:36;10.40;;;9.40;;
4692;SDS011;11710;48.024;16.296;2023-08-24T13:22:04;10.40;;;9.50;;
4692;SDS011;11710;48.024;16.296;2023-08-24T13:24:32;14.60;;;9.50;;
4692;SDS011;11710;48.024;16.296;2023-08-24T13:27:00;11.53;;;9.47;;
4692;SDS011;11710;48.024;16.296;2023-08-24T13:29:28;10.50;;;9.40;;
4692;SDS011;11710;48.024;16.296;2023-08-24T13:31:55;14.23;;;9.93;;
4692;SDS011;11710;48.024;16.296;2023-08-24T13:34:23;10.27;;;9.37;;
4692;SDS011;11710;48.024;16.296;2023-08-24T13:36:52;11.10;;;9.90;;
4692;SDS011;11710;48.024;16.296;2023-08-24T13:39:19;10.87;;;9.77;;
4692;SDS011;11710;48.024;16.296;2023-08-24T13:41:47;11.03;;;9.93;;
4692;SDS011;11710;48.024;16.296;2023-08-24T13:44:15;10.43;;;9.37;;
4692;SDS011;11710;48.024;16.296;2023-08-24T13:46:42;11.40;;;10.30;;
4692;SDS011;11710;48.024;16.296;2023-08-24T13:49:09;11.13;;;10.17;;
4692;SDS011;11710;48.024;16.296;2023-08-24T13:51:37;11.53;;;10.33;;
4692;SDS011;11710;48.024;16.296;2023-08-24T13:54:11;11.50;;;10.47;;
4692;SDS011;11710;48.024;16.296;2023-08-24T13:56:39;16.10;;;10.30;;
4692;SDS011;11710;48.024;16.296;2023-08-24T13:59:06;11.63;;;10.43;;
4692;SDS011;11710;48.024;16.296;2023-08-24T14:01:34;10.87;;;9.87;;
4692;SDS011;11710;48.024;16.296;2023-08-24T14:04:01;11.13;;;9.80;;
4692;SDS011;11710;48.024;16.296;2023-08-24T14:06:29;11.30;;;10.20;;
4692;SDS011;11710;48.024;16.296;2023-08-24T14:08:56;11.40;;;10.30;;
4692;SDS011;11710;48.024;16.296;2023-08-24T14:11:25;11.50;;;10.30;;
4692;SDS011;11710;48.024;16.296;2023-08-24T14:13:53;10.83;;;9.83;;
4692;SDS011;11710;48.024;16.296;2023-08-24T14:16:20;10.70;;;9.70;;
4692;SDS011;11710;48.024;16.296;2023-08-24T14:18:48;13.67;;;10.63;;
4692;SDS011;11710;48.024;16.296;2023-08-24T14:21:15;11.33;;;10.03;;
4692;SDS011;11710;48.024;16.296;2023-08-24T14:23:43;11.73;;;9.67;;
4692;SDS011;11710;48.024;16.296;2023-08-24T14:26:11;11.93;;;10.73;;
4692;SDS011;11710;48.024;16.296;2023-08-24T14:31:27;11.40;;;10.30;;
4692;SDS011;11710;48.024;16.296;2023-08-24T14:33:54;10.43;;;9.43;;
4692;SDS011;11710;48.024;16.296;2023-08-24T14:36:22;11.27;;;10.17;;
4692;SDS011;11710;48.024;16.296;2023-08-24T14:38:50;10.60;;;9.60;;
4692;SDS011;11710;48.024;16.296;2023-08-24T14:41:18;11.40;;;9.47;;
4692;SDS011;11710;48.024;16.296;2023-08-24T14:43:46;11.00;;;9.90;;
4692;SDS011;11710;48.024;16.296;2023-08-24T14:46:13;11.10;;;9.77;;
4692;SDS011;11710;48.024;16.296;2023-08-24T14:48:42;11.27;;;10.27;;
4692;SDS011;11710;48.024;16.296;2023-08-24T14:51:10;10.63;;;9.73;;
4692;SDS011;11710;48.024;16.296;2023-08-24T14:53:37;11.40;;;10.30;;
4692;SDS011;11710;48.024;16.296;2023-08-24T14:56:04;13.73;;;10.90;;
4692;SDS011;11710;48.024;16.296;2023-08-24T14:58:32;11.03;;;9.47;;
4692;SDS011;11710;48.024;16.296;2023-08-24T15:00:59;11.20;;;10.10;;
4692;SDS011;11710;48.024;16.296;2023-08-24T15:03:27;12.97;;;10.50;;
4692;SDS011;11710;48.024;16.296;2023-08-24T15:05:59;12.70;;;10.80;;
4692;SDS011;11710;48.024;16.296;2023-08-24T15:08:29;10.83;;;9.70;;
4692;SDS011;11710;48.024;16.296;2023-08-24T15:10:57;11.00;;;9.90;;
4692;SDS011;11710;48.024;16.296;2023-08-24T15:13:25;11.40;;;10.30;;
4692;SDS011;11710;48.024;16.296;2023-08-24T15:15:53;10.80;;;9.67;;
4692;SDS011;11710;48.024;16.296;2023-08-24T15:18:21;10.93;;;9.90;;
4692;SDS011;11710;48.024;16.296;2023-08-24T15:20:48;11.13;;;10.03;;
4692;SDS011;11710;48.024;16.296;2023-08-24T15:23:24;13.00;;;9.30;;
4692;SDS011;11710;48.024;16.296;2023-08-24T15:25:52;10.93;;;9.93;;
4692;SDS011;11710;48.024;16.296;2023-08-24T15:28:20;11.57;;;9.80;;
4692;SDS011;11710;48.024;16.296;2023-08-24T15:30:47;11.53;;;10.33;;
4692;SDS011;11710;48.024;16.296;2023-08-24T15:33:15;10.97;;;9.87;;
4692;SDS011;11710;48.024;16.296;2023-08-24T15:35:43;11.50;;;10.40;;
4692;SDS011;11710;48.024;16.296;2023-08-24T15:38:10;11.30;;;10.30;;
4692;SDS011;11710;48.024;16.296;2023-08-24T15:40:39;10.87;;;9.77;;
4692;SDS011;11710;48.024;16.296;2023-08-24T15:43:07;11.10;;;10.00;;
4692;SDS011;11710;48.024;16.296;2023-08-24T15:45:34;11.53;;;10.00;;
4692;SDS011;11710;48.024;16.296;2023-08-24T15:48:02;10.80;;;9.70;;
4692;SDS011;11710;48.024;16.296;2023-08-24T15:50:29;13.13;;;10.63;;
4692;SDS011;11710;48.024;16.296;2023-08-24T15:52:57;14.23;;;11.30;;
4692;SDS011;11710;48.024;16.296;2023-08-24T15:55:27;10.83;;;9.73;;
4692;SDS011;11710;48.024;16.296;2023-08-24T15:57:58;11.30;;;10.13;;
4692;SDS011;11710;48.024;16.296;2023-08-24T16:00:27;11.60;;;10.50;;
4692;SDS011;11710;48.024;16.296;2023-08-24T16:02:54;12.87;;;11.57;;
4692;SDS011;11710;48.024;16.296;2023-08-24T16:05:22;14.50;;;12.07;;
4692;SDS011;11710;48.024;16.296;2023-08-24T16:07:50;11.43;;;10.23;;
4692;SDS011;11710;48.024;16.296;2023-08-24T16:10:18;12.77;;;11.60;;
4692;SDS011;11710;48.024;16.296;2023-08-24T16:12:45;11.83;;;10.70;;
4692;SDS011;11710;48.024;16.296;2023-08-24T16:15:14;10.77;;;9.67;;
4692;SDS011;11710;48.024;16.296;2023-08-24T16:17:42;11.17;;;10.07;;
4692;SDS011;11710;48.024;16.296;2023-08-24T16:20:10;11.67;;;10.20;;
4692;SDS011;11710;48.024;16.296;2023-08-24T16:22:38;11.20;;;10.10;;
4692;SDS011;11710;48.024;16.296;2023-08-24T16:25:06;11.40;;;10.30;;
4692;SDS011;11710;48.024;16.296;2023-08-24T16:27:34;11.80;;;10.33;;
4692;SDS011;11710;48.024;16.296;2023-08-24T16:30:04;11.90;;;9.97;;
4692;SDS011;11710;48.024;16.296;2023-08-24T16:32:33;10.47;;;9.50;;
4692;SDS011;11710;48.024;16.296;2023-08-24T16:35:00;10.83;;;9.87;;
4692;SDS011;11710;48.024;16.296;2023-08-24T16:37:28;13.90;;;10.10;;
4692;SDS011;11710;48.024;16.296;2023-08-24T16:39:56;10.80;;;9.70;;
4692;SDS011;11710;48.024;16.296;2023-08-24T16:42:23;13.10;;;10.23;;
4692;SDS011;11710;48.024;16.296;2023-08-24T16:44:50;11.10;;;10.00;;
4692;SDS011;11710;48.024;16.296;2023-08-24T16:47:18;10.67;;;9.57;;
4692;SDS011;11710;48.024;16.296;2023-08-24T16:49:47;11.77;;;10.57;;
4692;SDS011;11710;48.024;16.296;2023-08-24T16:52:15;11.40;;;10.30;;
4692;SDS011;11710;48.024;16.296;2023-08-24T16:54:43;11.67;;;10.47;;
4692;SDS011;11710;48.024;16.296;2023-08-24T16:57:11;11.30;;;9.80;;
4692;SDS011;11710;48.024;16.296;2023-08-24T16:59:39;11.67;;;10.50;;
4692;SDS011;11710;48.024;16.296;2023-08-24T17:02:06;12.60;;;10.30;;
4692;SDS011;11710;48.024;16.296;2023-08-24T17:04:33;10.93;;;9.93;;
4692;SDS011;11710;48.024;16.296;2023-08-24T17:07:02;12.97;;;10.60;;
4692;SDS011;11710;48.024;16.296;2023-08-24T17:09:30;10.50;;;9.43;;
4692;SDS011;11710;48.024;16.296;2023-08-24T17:11:57;11.40;;;10.30;;
4692;SDS011;11710;48.024;16.296;2023-08-24T17:14:25;11.37;;;10.07;;
4692;SDS011;11710;48.024;16.296;2023-08-24T17:16:52;11.60;;;10.43;;
4692;SDS011;11710;48.024;16.296;2023-08-24T17:19:19;11.00;;;9.90;;
4692;SDS011;11710;48.024;16.296;2023-08-24T17:21:47;11.80;;;10.10;;
4692;SDS011;11710;48.024;16.296;2023-08-24T17:24:16;14.00;;;10.60;;
4692;SDS011;11710;48.024;16.296;2023-08-24T17:26:43;13.83;;;10.30;;
4692;SDS011;11710;48.024;16.296;2023-08-24T17:29:10;11.97;;;10.73;;
4692;SDS011;11710;48.024;16.296;2023-08-24T17:31:38;9.60;;;8.70;;
4692;SDS011;11710;48.024;16.296;2023-08-24T17:34:05;12.20;;;9.50;;
4692;SDS011;11710;48.024;16.296;2023-08-24T17:36:36;11.20;;;9.97;;
4692;SDS011;11710;48.024;16.296;2023-08-24T17:39:03;12.30;;;11.00;;
4692;SDS011;11710;48.024;16.296;2023-08-24T17:41:32;12.67;;;10.20;;
4692;SDS011;11710;48.024;16.296;2023-08-24T17:44:00;11.97;;;10.77;;
4692;SDS011;11710;48.024;16.296;2023-08-24T17:46:27;12.40;;;10.80;;
4692;SDS011;11710;48.024;16.296;2023-08-24T17:48:55;13.63;;;10.40;;
4692;SDS011;11710;48.024;16.296;2023-08-24T17:51:22;11.87;;;10.23;;
4692;SDS011;11710;48.024;16.296;2023-08-24T17:53:49;11.87;;;10.70;;
4692;SDS011;11710;48.024;16.296;2023-08-24T17:56:17;11.23;;;10.13;;
4692;SDS011;11710;48.024;16.296;2023-08-24T17:58:46;14.23;;;11.10;;
4692;SDS011;11710;48.024;16.296;2023-08-24T18:01:14;11.73;;;10.53;;
4692;SDS011;11710;48.024;16.296;2023-08-24T18:03:41;12.03;;;10.83;;
4692;SDS011;11710;48.024;16.296;2023-08-24T18:06:08;14.17;;;10.57;;
4692;SDS011;11710;48.024;16.296;2023-08-24T18:08:36;11.57;;;10.37;;
4692;SDS011;11710;48.024;16.296;2023-08-24T18:11:03;11.57;;;10.37;;
4692;SDS011;11710;48.024;16.296;2023-08-24T18:13:31;12.00;;;10.80;;
4692;SDS011;11710;48.024;16.296;2023-08-24T18:16:00;17.47;;;10.93;;
4692;SDS011;11710;48.024;16.296;2023-08-24T18:18:28;12.80;;;10.17;;
4692;SDS011;11710;48.024;16.296;2023-08-24T18:20:56;12.40;;;10.20;;
4692;SDS011;11710;48.024;16.296;2023-08-24T18:23:24;12.37;;;11.07;;
4692;SDS011;11710;48.024;16.296;2023-08-24T18:25:52;12.43;;;11.10;;
4692;SDS011;11710;48.024;16.296;2023-08-24T18:28:20;12.23;;;10.80;;
4692;SDS011;11710;48.024;16.296;2023-08-24T18:30:47;12.77;;;10.30;;
4692;SDS011;11710;48.024;16.296;2023-08-24T18:33:16;12.53;;;10.50;;
4692;SDS011;11710;48.024;16.296;2023-08-24T18:35:43;13.70;;;10.73;;
4692;SDS011;11710;48.024;16.296;2023-08-24T18:38:11;11.63;;;10.30;;
4692;SDS011;11710;48.024;16.296;2023-08-24T18:40:39;12.90;;;11.00;;
4692;SDS011;11710;48.024;16.296;2023-08-24T18:43:06;12.70;;;11.40;;
4692;SDS011;11710;48.024;16.296;2023-08-24T18:45:34;12.50;;;10.50;;
4692;SDS011;11710;48.024;16.296;2023-08-24T18:48:01;11.73;;;10.40;;
4692;SDS011;11710;48.024;16.296;2023-08-24T18:50:30;12.33;;;11.13;;
4692;SDS011;11710;48.024;16.296;2023-08-24T18:52:57;11.37;;;10.27;;
4692;SDS011;11710;48.024;16.296;2023-08-24T18:55:25;12.53;;;10.87;;
4692;SDS011;11710;48.024;16.296;2023-08-24T18:57:52;11.07;;;10.07;;
4692;SDS011;11710;48.024;16.296;2023-08-24T19:00:21;14.97;;;10.43;;
4692;SDS011;11710;48.024;16.296;2023-08-24T19:02:49;10.83;;;9.77;;
4692;SDS011;11710;48.024;16.296;2023-08-24T19:05:16;12.87;;;10.47;;
4692;SDS011;11710;48.024;16.296;2023-08-24T19:07:45;11.50;;;10.30;;
4692;SDS011;11710;48.024;16.296;2023-08-24T19:10:12;11.23;;;10.10;;
4692;SDS011;11710;48.024;16.296;2023-08-24T19:12:40;13.33;;;10.07;;
4692;SDS011;11710;48.024;16.296;2023-08-24T19:15:11;13.87;;;11.10;;
4692;SDS011;11710;48.024;16.296;2023-08-24T19:17:39;11.17;;;10.17;;
4692;SDS011;11710;48.024;16.296;2023-08-24T19:20:07;11.00;;;9.90;;
4692;SDS011;11710;48.024;16.296;2023-08-24T19:22:34;12.53;;;10.33;;
4692;SDS011;11710;48.024;16.296;2023-08-24T19:25:04;11.10;;;10.00;;
4692;SDS011;11710;48.024;16.296;2023-08-24T19:27:33;13.17;;;11.23;;
4692;SDS011;11710;48.024;16.296;2023-08-24T19:30:00;15.40;;;10.33;;
4692;SDS011;11710;48.024;16.296;2023-08-24T19:32:29;12.70;;;10.30;;
4692;SDS011;11710;48.024;16.296;2023-08-24T19:34:56;10.97;;;9.97;;
4692;SDS011;11710;48.024;16.296;2023-08-24T19:37:24;11.83;;;10.60;;
4692;SDS011;11710;48.024;16.296;2023-08-24T19:39:51;10.77;;;9.77;;
4692;SDS011;11710;48.024;16.296;2023-08-24T19:42:20;13.83;;;12.27;;
4692;SDS011;11710;48.024;16.296;2023-08-24T19:44:50;13.60;;;10.60;;
4692;SDS011;11710;48.024;16.296;2023-08-24T19:47:17;12.10;;;11.00;;
4692;SDS011;11710;48.024;16.296;2023-08-24T19:49:45;14.00;;;10.77;;
4692;SDS011;11710;48.024;16.296;2023-08-24T19:52:12;12.23;;;11.10;;
4692;SDS011;11710;48.024;16.296;2023-08-24T19:54:39;12.00;;;10.80;;
4692;SDS011;11710;48.024;16.296;2023-08-24T19:57:07;11.40;;;10.30;;
4692;SDS011;11710;48.024;16.296;2023-08-24T19:59:37;12.53;;;11.23;;
4692;SDS011;11710;48.024;16.296;2023-08-24T20:02:04;12.30;;;11.03;;
4692;SDS011;11710;48.024;16.296;2023-08-24T20:04:32;15.63;;;12.47;;
4692;SDS011;11710;48.024;16.296;2023-08-24T20:07:00;15.73;;;12.17;;
4692;SDS011;11710;48.024;16.296;2023-08-24T20:09:28;15.73;;;11.50;;